Time;durP1;ratioP1;P1;durP2;ratioP2;P2;SDS_P1;SDS_P2;PMS_P1;PMS_P2;Temp;Humidity;BMP_temperature;BMP_pressure;BME280_temperature;BME280_humidity;BME280_pressure;Samples;Min_cycle;Max_cycle;Signal;HPM_P1;HPM_P2
2024/02/12 00:03:31;;;;;;;20.00;14.90;;;;;;;8.51;100.00;97634.48;219774;1257;141401;-72
2024/02/12 00:08:36;;;;;;;15.50;13.20;;;;;;;8.53;100.00;97640.42;218985;1257;140655;-73
2024/02/12 00:13:40;;;;;;;19.30;11.70;;;;;;;8.56;100.00;97641.56;216737;1261;140609;-72
2024/02/12 00:18:46;;;;;;;15.40;12.50;;;;;;;8.57;100.00;97639.54;216902;1257;140213;-72
2024/02/12 00:23:50;;;;;;;19.40;13.30;;;;;;;8.55;100.00;97641.00;216943;1257;140832;-73
2024/02/12 00:28:55;;;;;;;17.60;12.80;;;;;;;8.53;100.00;97644.94;216655;1257;140651;-72
2024/02/12 00:34:01;;;;;;;10.20;8.70;;;;;;;8.52;100.00;97642.13;217787;1257;153838;-72
2024/02/12 00:39:09;;;;;;;13.70;9.30;;;;;;;8.50;100.00;97643.03;216735;1261;141811;-71
2024/02/12 00:44:14;;;;;;;15.50;11.10;;;;;;;8.48;100.00;97647.88;216812;1257;139452;-71
2024/02/12 00:49:18;;;;;;;11.50;10.00;;;;;;;8.46;100.00;97651.38;216688;1257;141956;-70
2024/02/12 00:54:26;;;;;;;10.60;8.40;;;;;;;8.44;100.00;97651.71;216522;1261;140552;-71
2024/02/12 00:59:31;;;;;;;9.10;8.00;;;;;;;8.43;100.00;97650.70;216580;1261;141982;-70
2024/02/12 01:04:36;;;;;;;8.60;6.70;;;;;;;8.41;100.00;97649.70;217354;1257;140732;-72
2024/02/12 01:09:41;;;;;;;8.20;7.20;;;;;;;8.38;100.00;97651.73;216664;1260;140134;-71
2024/02/12 01:14:45;;;;;;;6.80;4.50;;;;;;;8.39;100.00;97655.54;216846;1260;139937;-72
2024/02/12 01:19:51;;;;;;;7.10;5.40;;;;;;;8.35;100.00;97656.14;216851;1257;140302;-72
2024/02/12 01:24:56;;;;;;;6.20;5.20;;;;;;;8.31;100.00;97659.78;218097;1257;140624;-73
2024/02/12 01:30:03;;;;;;;5.40;4.90;;;;;;;8.30;100.00;97661.91;216602;1260;139945;-73
2024/02/12 01:35:08;;;;;;;4.60;4.10;;;;;;;8.27;100.00;97666.11;218909;1261;143050;-73
2024/02/12 01:40:13;;;;;;;4.00;3.50;;;;;;;8.23;100.00;97668.59;219739;1257;139954;-72
2024/02/12 01:45:30;;;;;;;6.90;5.00;;;;;;;8.17;100.00;97668.02;219670;1257;141328;-74
2024/02/12 01:50:34;;;;;;;5.30;4.50;;;;;;;8.16;100.00;97675.92;219782;1259;140103;-74
2024/02/12 01:55:38;;;;;;;4.80;4.40;;;;;;;8.16;100.00;97675.87;217291;1261;141327;-72
2024/02/12 02:00:48;;;;;;;5.30;4.80;;;;;;;8.14;100.00;97679.91;216628;1259;140851;-73
2024/02/12 02:05:53;;;;;;;5.70;4.60;;;;;;;8.13;100.00;97677.52;216888;1259;139914;-73
2024/02/12 02:10:58;;;;;;;4.80;4.00;;;;;;;8.12;100.00;97674.02;217241;1261;139904;-72
2024/02/12 02:16:02;;;;;;;5.00;4.50;;;;;;;8.06;100.00;97676.63;217195;1261;141058;-71
2024/02/12 02:21:12;;;;;;;9.20;4.40;;;;;;;8.04;100.00;97676.30;216865;1258;139751;-71
2024/02/12 02:26:19;;;;;;;4.80;4.20;;;;;;;8.04;100.00;97681.67;216636;1258;140856;-73
2024/02/12 02:31:22;;;;;;;3.70;3.40;;;;;;;8.01;100.00;97680.50;216865;1260;140144;-74
2024/02/12 02:36:27;;;;;;;4.90;4.40;;;;;;;8.01;100.00;97685.86;216135;1258;141299;-71
2024/02/12 02:41:32;;;;;;;3.90;3.40;;;;;;;7.99;100.00;97688.14;216712;1260;140063;-72
2024/02/12 02:46:36;;;;;;;3.00;2.70;;;;;;;7.96;100.00;97692.82;216925;1258;140167;-74
2024/02/12 02:51:41;;;;;;;4.90;3.80;;;;;;;7.92;100.00;97695.77;216642;1261;140461;-72
2024/02/12 02:56:45;;;;;;;3.60;3.30;;;;;;;7.88;100.00;97699.16;216754;1258;143621;-73
2024/02/12 03:01:50;;;;;;;4.20;3.50;;;;;;;7.86;100.00;97698.36;216793;1262;140679;-73
2024/02/12 03:06:54;;;;;;;4.80;3.00;;;;;;;7.86;100.00;97703.51;217667;1261;140278;-74
2024/02/12 03:12:01;;;;;;;3.10;2.60;;;;;;;7.82;100.00;97707.33;217189;1260;139921;-74
2024/02/12 03:17:06;;;;;;;3.70;3.40;;;;;;;7.80;100.00;97707.96;218964;1258;143138;-75
2024/02/12 03:22:11;;;;;;;4.90;3.30;;;;;;;7.80;100.00;97711.24;217087;1258;140158;-72
2024/02/12 03:27:15;;;;;;;4.80;3.00;;;;;;;7.77;100.00;97721.16;216790;1260;140223;-71
2024/02/12 03:32:46;;;;;;;3.30;2.80;;;;;;;7.74;100.00;97723.08;216929;1257;139583;-77
2024/02/12 03:37:51;;;;;;;2.80;2.20;;;;;;;7.70;100.00;97725.19;216919;1258;141688;-75
2024/02/12 03:42:55;;;;;;;3.00;2.70;;;;;;;7.66;100.00;97726.84;216737;1261;141392;-77
2024/02/12 03:59:51;;;;;;;2.80;2.40;;;;;;;7.61;100.00;97732.10;216843;1261;139547;-75
2024/02/12 04:04:20;;;;;;;3.20;2.60;;;;;;;7.51;100.00;97750.80;216978;1260;140596;-74
2024/02/12 04:09:26;;;;;;;3.50;3.20;;;;;;;7.50;100.00;97742.78;218925;1261;140123;-74
2024/02/12 04:14:31;;;;;;;2.80;2.60;;;;;;;7.47;100.00;97743.48;216615;1260;141407;-75
2024/02/12 04:19:36;;;;;;;3.60;2.60;;;;;;;7.46;100.00;97745.48;216694;1260;140496;-75
2024/02/12 04:24:41;;;;;;;2.40;2.20;;;;;;;7.42;100.00;97747.70;217811;1260;151800;-73
2024/02/12 04:29:45;;;;;;;3.20;3.00;;;;;;;7.38;100.00;97749.23;217092;1262;139976;-75
2024/02/12 04:34:50;;;;;;;2.70;2.50;;;;;;;7.36;100.00;97757.48;216701;1260;139595;-70
2024/02/12 04:39:56;;;;;;;3.40;2.50;;;;;;;7.36;100.00;97756.27;216128;1260;771015;-73
2024/02/12 04:45:00;;;;;;;2.10;2.00;;;;;;;7.35;100.00;97760.51;216489;1260;140001;-73
2024/02/12 04:50:05;;;;;;;1.60;1.50;;;;;;;7.34;100.00;97761.67;216988;1262;140333;-73
2024/02/12 04:55:10;;;;;;;5.40;2.70;;;;;;;7.34;100.00;97761.52;217501;1261;139745;-74
2024/02/12 05:00:17;;;;;;;5.10;2.10;;;;;;;7.34;100.00;97765.77;217297;1261;139987;-74
2024/02/12 05:05:24;;;;;;;2.40;1.90;;;;;;;7.32;100.00;97765.66;216863;1260;140689;-73
2024/02/12 05:10:27;;;;;;;2.10;1.90;;;;;;;7.31;100.00;97771.76;216780;1259;139978;-73
2024/02/12 05:15:31;;;;;;;1.50;1.40;;;;;;;7.28;100.00;97767.73;216508;1260;140311;-71
2024/02/12 05:26:00;;;;;;;1.90;1.80;;;;;;;7.25;100.00;97781.80;219847;1257;140153;-72
2024/02/12 05:31:04;;;;;;;2.30;2.10;;;;;;;7.26;100.00;97785.48;216784;1258;139825;-75
2024/02/12 05:36:10;;;;;;;4.30;2.50;;;;;;;7.28;100.00;97791.84;216360;1261;141463;-75
2024/02/12 05:41:14;;;;;;;2.90;2.40;;;;;;;7.26;100.00;97799.20;218951;1258;140197;-74
2024/02/12 05:46:19;;;;;;;2.10;2.00;;;;;;;7.25;100.00;97803.75;219117;1257;140222;-75
2024/02/12 05:51:25;;;;;;;3.70;2.90;;;;;;;7.26;100.00;97811.81;218207;1257;140243;-76
2024/02/12 05:56:31;;;;;;;2.40;2.20;;;;;;;7.26;100.00;97812.08;217143;1262;140122;-77
2024/02/12 06:01:36;;;;;;;2.50;2.40;;;;;;;7.25;100.00;97817.70;216822;1260;139601;-76
2024/02/12 06:06:40;;;;;;;2.10;2.00;;;;;;;7.23;100.00;97819.64;217700;1261;139840;-74
2024/02/12 06:11:45;;;;;;;3.60;2.40;;;;;;;7.22;100.00;97829.70;216594;1261;140798;-75
2024/02/12 06:16:49;;;;;;;2.90;2.70;;;;;;;7.22;100.00;97835.05;216562;1260;139755;-74
2024/02/12 06:21:54;;;;;;;2.90;2.50;;;;;;;7.22;100.00;97835.65;216993;1262;142894;-75
2024/02/12 06:26:59;;;;;;;4.70;2.90;;;;;;;7.22;100.00;97840.36;216640;1260;140320;-75
2024/02/12 06:32:05;;;;;;;2.70;2.50;;;;;;;7.24;100.00;97843.08;216803;1261;141613;-75
2024/02/12 06:37:09;;;;;;;3.10;2.80;;;;;;;7.24;100.00;97849.21;216793;1258;140830;-75
2024/02/12 06:42:16;;;;;;;2.90;2.70;;;;;;;7.25;100.00;97851.56;216887;1262;139924;-73
2024/02/12 06:47:20;;;;;;;3.10;2.80;;;;;;;7.26;100.00;97865.83;216820;1261;140631;-73
2024/02/12 06:52:24;;;;;;;2.60;2.40;;;;;;;7.27;100.00;97869.80;216770;1257;140215;-72
2024/02/12 06:57:30;;;;;;;2.80;2.50;;;;;;;7.25;100.00;97874.93;216718;1257;140722;-72
2024/02/12 07:02:35;;;;;;;2.80;2.60;;;;;;;7.25;100.00;97883.63;216813;1258;140865;-72
2024/02/12 07:07:40;;;;;;;4.00;3.10;;;;;;;7.25;100.00;97885.43;216753;1260;139427;-72
2024/02/12 07:12:46;;;;;;;4.10;3.80;;;;;;;7.26;100.00;97887.18;217031;1261;139661;-72
2024/02/12 07:17:51;;;;;;;2.60;2.20;;;;;;;7.29;100.00;97892.66;216655;1260;140027;-74
2024/02/12 07:22:57;;;;;;;2.40;2.20;;;;;;;7.30;100.00;97898.29;218062;1257;139684;-74
2024/02/12 07:28:01;;;;;;;3.90;2.80;;;;;;;7.32;100.00;97897.39;219650;1260;140106;-75
2024/02/12 07:33:06;;;;;;;3.20;3.00;;;;;;;7.36;100.00;97902.48;219675;1257;140386;-73
2024/02/12 07:38:10;;;;;;;3.90;3.40;;;;;;;7.40;100.00;97907.64;219747;1257;141051;-71
2024/02/12 07:43:15;;;;;;;33.30;22.90;;;;;;;7.43;100.00;97912.85;218010;1261;139712;-72
2024/02/12 07:48:19;;;;;;;4.60;4.10;;;;;;;7.49;100.00;97920.30;216836;1262;140707;-78
2024/02/12 07:53:28;;;;;;;6.00;4.10;;;;;;;7.48;100.00;97924.80;216896;1260;140113;-75
2024/02/12 07:58:33;;;;;;;5.50;5.00;;;;;;;7.50;100.00;97931.60;216974;1257;140365;-74
2024/02/12 08:03:38;;;;;;;3.90;3.10;;;;;;;7.52;100.00;97940.79;217441;1257;140381;-74
2024/02/12 08:08:43;;;;;;;3.80;3.50;;;;;;;7.53;100.00;97948.17;216657;1262;139704;-73
2024/02/12 08:13:46;;;;;;;4.50;4.00;;;;;;;7.53;100.00;97949.54;216610;1263;139873;-73
2024/02/12 08:18:52;;;;;;;4.60;3.00;;;;;;;7.54;100.00;97959.09;216769;1262;140849;-74
2024/02/12 08:23:59;;;;;;;5.40;4.40;;;;;;;7.55;100.00;97965.93;216574;1261;160359;-74
2024/02/12 08:29:04;;;;;;;6.50;5.70;;;;;;;7.54;100.00;97968.26;216816;1262;140054;-73
2024/02/12 08:34:10;;;;;;;6.40;4.40;;;;;;;7.55;100.00;97973.52;216902;1262;140876;-75
2024/02/12 08:39:15;;;;;;;6.00;5.10;;;;;;;7.55;100.00;97977.50;217392;1257;140717;-75
2024/02/12 08:44:26;;;;;;;3.10;2.80;;;;;;;7.58;100.00;97982.13;216909;1261;140398;-76
2024/02/12 08:49:30;;;;;;;5.10;4.20;;;;;;;7.61;100.00;97989.15;216856;1262;141305;-77
2024/02/12 08:54:37;;;;;;;6.20;5.40;;;;;;;7.62;100.00;97997.38;216661;1263;141902;-74
2024/02/12 08:59:44;;;;;;;6.20;5.40;;;;;;;7.58;100.00;98002.39;216726;1262;142415;-73
2024/02/12 09:04:49;;;;;;;;;;;;;;;7.57;100.00;98012.19;216607;1259;140886;-72
2024/02/12 09:09:53;;;;;;;6.80;5.30;;;;;;;7.56;100.00;98014.52;217387;1261;126165;-72
2024/02/12 09:15:01;;;;;;;7.50;4.80;;;;;;;7.58;100.00;98021.70;216576;1261;139577;-70
2024/02/12 09:20:06;;;;;;;6.30;4.20;;;;;;;7.62;100.00;98034.08;218048;1258;140311;-71
2024/02/12 09:25:12;;;;;;;6.10;4.60;;;;;;;7.60;100.00;98038.20;217174;1257;139649;-73
2024/02/12 09:30:16;;;;;;;7.40;4.70;;;;;;;7.60;100.00;98042.97;218157;1261;139602;-72
2024/02/12 09:35:22;;;;;;;7.70;4.60;;;;;;;7.61;100.00;98048.08;217067;1258;140391;-69
2024/02/12 09:40:31;;;;;;;5.00;3.70;;;;;;;7.65;100.00;98052.48;218542;1257;142573;-70
2024/02/12 09:45:42;;;;;;;7.10;4.30;;;;;;;7.68;100.00;98062.20;218645;1258;140859;-72
2024/02/12 09:50:50;;;;;;;6.30;5.40;;;;;;;7.71;100.00;98063.02;216975;1257;139584;-70
2024/02/12 09:55:56;;;;;;;6.10;4.90;;;;;;;7.77;100.00;98065.02;217499;1262;139761;-69
2024/02/12 10:01:01;;;;;;;5.90;4.20;;;;;;;7.77;100.00;98064.27;217637;1261;140783;-70
2024/02/12 10:06:05;;;;;;;4.70;4.30;;;;;;;7.78;100.00;98071.02;216821;1263;139771;-70
2024/02/12 10:11:10;;;;;;;6.00;5.40;;;;;;;7.84;100.00;98071.37;217789;1262;141499;-71
2024/02/12 10:16:19;;;;;;;5.00;4.40;;;;;;;7.95;100.00;98074.08;217709;1260;141715;-70
2024/02/12 10:21:29;;;;;;;7.30;4.70;;;;;;;8.06;100.00;98077.30;216983;1263;141131;-70
2024/02/12 10:26:33;;;;;;;5.90;3.90;;;;;;;8.09;100.00;98077.02;217436;1261;139740;-71
2024/02/12 10:31:37;;;;;;;6.70;4.40;;;;;;;8.12;100.00;98079.52;217251;1262;140096;-70
2024/02/12 10:36:47;;;;;;;6.10;3.60;;;;;;;8.10;100.00;98082.90;216800;1261;139916;-72
2024/02/12 10:41:56;;;;;;;6.60;4.10;;;;;;;8.12;100.00;98091.67;217569;1257;142867;-72
2024/02/12 10:47:04;;;;;;;6.90;4.60;;;;;;;8.13;100.00;98095.60;217108;1257;139737;-72
2024/02/12 10:52:14;;;;;;;9.70;4.40;;;;;;;8.17;100.00;98098.55;216836;1262;139964;-76
2024/02/12 10:57:19;;;;;;;7.10;5.00;;;;;;;8.20;100.00;98093.15;216878;1257;140422;-74
2024/02/12 11:02:24;;;;;;;7.90;5.00;;;;;;;8.24;100.00;98089.88;217678;1263;140116;-75
2024/02/12 11:07:28;;;;;;;6.00;4.60;;;;;;;8.28;100.00;98095.52;217966;1257;140345;-70
2024/02/12 11:12:34;;;;;;;8.10;4.90;;;;;;;8.42;100.00;98093.99;219578;1258;139782;-74
2024/02/12 11:17:48;;;;;;;5.50;4.70;;;;;;;8.48;100.00;98092.90;218944;1257;140832;-73
2024/02/12 11:23:06;;;;;;;4.40;4.00;;;;;;;8.53;100.00;98097.86;218096;1257;140904;-74
2024/02/12 11:28:17;;;;;;;4.80;4.10;;;;;;;8.57;100.00;98095.30;217980;1257;141164;-73
2024/02/12 11:33:25;;;;;;;6.60;4.10;;;;;;;8.64;100.00;98101.80;216588;1257;140688;-73
2024/02/12 11:38:31;;;;;;;5.20;4.10;;;;;;;8.69;100.00;98107.61;216771;1257;141603;-73
2024/02/12 11:43:35;;;;;;;4.90;4.40;;;;;;;8.69;100.00;98113.41;216740;1257;139920;-72
2024/02/12 11:48:40;;;;;;;4.10;3.70;;;;;;;8.66;100.00;98119.77;216802;1258;140279;-73
2024/02/12 11:53:45;;;;;;;5.10;4.10;;;;;;;8.64;100.00;98120.52;216788;1261;140499;-73
2024/02/12 11:58:54;;;;;;;;;;;;;;;8.63;100.00;98123.27;216772;1260;142164;-73
2024/02/12 12:04:00;;;;;;;5.30;3.80;;;;;;;8.61;100.00;98127.83;217131;1262;126539;-73
2024/02/12 12:09:11;;;;;;;4.70;3.80;;;;;;;8.58;100.00;98131.48;216491;1257;140659;-73
2024/02/12 12:14:16;;;;;;;3.40;3.20;;;;;;;8.55;100.00;98130.00;216644;1258;141089;-73
2024/02/12 12:19:21;;;;;;;5.50;3.80;;;;;;;8.50;100.00;98132.91;216695;1257;142491;-73
2024/02/12 12:24:27;;;;;;;4.50;4.00;;;;;;;8.49;100.00;98140.34;216413;1257;139820;-73
2024/02/12 12:29:33;;;;;;;4.20;3.60;;;;;;;8.49;100.00;98139.65;217038;1257;140129;-73
2024/02/12 12:34:41;;;;;;;6.70;4.40;;;;;;;8.52;100.00;98142.53;216574;1257;140151;-73
2024/02/12 12:39:47;;;;;;;4.70;4.30;;;;;;;8.51;100.00;98140.25;216914;1258;140097;-74
2024/02/12 12:44:52;;;;;;;9.80;4.30;;;;;;;8.48;100.00;98147.92;216592;1262;140561;-73
2024/02/12 12:49:57;;;;;;;5.40;3.70;;;;;;;8.46;100.00;98152.33;216852;1257;139480;-74
2024/02/12 12:55:07;;;;;;;5.00;4.00;;;;;;;8.44;100.00;98154.61;216983;1258;140585;-73
2024/02/12 13:00:18;;;;;;;9.00;3.90;;;;;;;8.43;100.00;98165.27;216629;1262;140949;-73
2024/02/12 13:05:25;;;;;;;4.80;3.50;;;;;;;8.35;100.00;98166.81;217683;1257;140433;-73
2024/02/12 13:10:30;;;;;;;4.80;4.00;;;;;;;8.27;100.00;98173.75;219576;1259;140239;-73
2024/02/12 13:15:47;;;;;;;6.00;3.80;;;;;;;8.20;100.00;98169.54;219685;1258;139788;-74
2024/02/12 13:20:52;;;;;;;7.30;4.50;;;;;;;8.19;100.00;98176.65;218182;1257;140644;-73
2024/02/12 13:26:04;;;;;;;6.20;4.30;;;;;;;8.15;100.00;98176.56;218325;1257;140056;-73
2024/02/12 13:31:14;;;;;;;8.00;4.90;;;;;;;8.10;100.00;98187.04;217096;1262;139968;-73
2024/02/12 13:36:20;;;;;;;8.30;5.10;;;;;;;8.09;100.00;98187.46;216651;1257;140669;-73
2024/02/12 13:41:25;;;;;;;6.30;4.20;;;;;;;8.06;100.00;98197.63;216875;1258;140715;-73
2024/02/12 13:46:32;;;;;;;7.40;5.30;;;;;;;8.00;100.00;98206.39;216656;1260;140329;-73
2024/02/12 13:51:41;;;;;;;5.30;4.10;;;;;;;8.00;100.00;98209.63;217420;1261;139954;-72
2024/02/12 13:56:48;;;;;;;8.70;5.90;;;;;;;7.94;100.00;98213.73;216403;1260;140690;-74
2024/02/12 14:01:54;;;;;;;8.90;6.60;;;;;;;7.89;100.00;98218.38;216784;1261;140427;-73
2024/02/12 14:07:08;;;;;;;5.20;4.10;;;;;;;7.89;100.00;98219.80;216738;1257;140411;-73
2024/02/12 14:12:19;;;;;;;7.10;5.10;;;;;;;7.88;100.00;98228.50;218249;1257;139675;-73
2024/02/12 14:17:24;;;;;;;7.20;5.60;;;;;;;7.88;100.00;98233.13;216630;1260;139520;-72
2024/02/12 14:22:28;;;;;;;7.00;5.70;;;;;;;7.89;100.00;98241.83;216702;1262;139742;-72
2024/02/12 14:27:33;;;;;;;7.30;6.60;;;;;;;7.87;100.00;98248.45;216490;1261;139677;-72
2024/02/12 14:32:40;;;;;;;8.00;5.10;;;;;;;7.83;100.00;98260.23;216875;1257;140817;-72
2024/02/12 14:37:46;;;;;;;12.60;5.80;;;;;;;7.82;100.00;98263.15;217885;1257;140551;-72
2024/02/12 14:42:50;;;;;;;6.40;4.20;;;;;;;7.83;100.00;98270.32;216998;1258;140810;-72
2024/02/12 14:48:06;;;;;;;8.70;5.50;;;;;;;7.84;100.00;98275.90;217320;1257;212597;-72
2024/02/12 14:53:10;;;;;;;5.60;4.70;;;;;;;7.87;99.84;98286.59;217893;1258;140541;-72
2024/02/12 14:58:15;;;;;;;4.70;4.20;;;;;;;7.86;99.97;98291.68;216587;1259;139764;-73
2024/02/12 15:03:20;;;;;;;8.90;6.30;;;;;;;7.83;99.55;98294.58;216696;1260;140394;-71
2024/02/12 15:08:26;;;;;;;6.90;4.60;;;;;;;7.82;99.05;98304.27;218340;1258;220590;-72
2024/02/12 15:13:31;;;;;;;4.30;3.80;;;;;;;7.78;99.07;98304.39;219642;1257;141610;-74
2024/02/12 15:18:36;;;;;;;5.60;3.40;;;;;;;7.79;98.69;98319.05;218864;1257;140305;-72
2024/02/12 15:23:45;;;;;;;6.80;4.80;;;;;;;7.78;98.42;98328.73;219536;1257;140148;-71
2024/02/12 15:28:50;;;;;;;7.20;3.70;;;;;;;7.79;98.08;98336.66;216766;1258;140180;-72
2024/02/12 15:33:54;;;;;;;8.20;4.50;;;;;;;7.78;98.00;98345.45;217668;1257;141102;-73
2024/02/12 15:39:00;;;;;;;7.20;4.30;;;;;;;7.75;97.80;98353.48;217506;1258;140416;-71
2024/02/12 15:44:10;;;;;;;7.90;5.70;;;;;;;7.70;97.68;98364.95;216676;1262;139533;-71
2024/02/12 15:49:14;;;;;;;6.50;5.20;;;;;;;7.68;97.83;98369.52;217231;1257;141469;-72
2024/02/12 15:54:22;;;;;;;5.70;4.20;;;;;;;7.62;97.82;98377.01;216805;1257;141849;-73
2024/02/12 15:59:29;;;;;;;5.20;3.40;;;;;;;7.58;97.67;98391.29;217672;1259;141375;-74
2024/02/12 16:04:39;;;;;;;6.80;5.10;;;;;;;7.55;97.56;98396.13;216654;1261;139581;-74
2024/02/12 16:09:45;;;;;;;6.70;5.00;;;;;;;7.53;97.53;98406.50;216922;1261;140387;-75
2024/02/12 16:14:51;;;;;;;6.30;4.80;;;;;;;7.50;97.51;98412.60;216767;1257;140414;-72
2024/02/12 16:19:55;;;;;;;7.80;5.80;;;;;;;7.44;97.40;98425.69;216917;1258;140614;-72
2024/02/12 16:25:12;;;;;;;6.20;5.30;;;;;;;7.37;97.29;98434.23;216866;1257;139855;-72
2024/02/12 16:30:18;;;;;;;9.60;6.10;;;;;;;7.35;97.72;98443.11;218228;1258;139726;-73
2024/02/12 16:35:22;;;;;;;11.10;7.70;;;;;;;7.34;97.80;98451.75;217014;1260;139426;-73
2024/02/12 16:40:27;;;;;;;9.70;6.90;;;;;;;7.32;97.93;98458.30;216367;1261;414962;-72
2024/02/12 16:45:31;;;;;;;15.50;8.20;;;;;;;7.29;97.75;98465.91;218812;1257;140186;-72
2024/02/12 16:50:35;;;;;;;16.20;7.50;;;;;;;7.24;97.82;98467.90;216892;1257;139920;-72
2024/02/12 16:55:40;;;;;;;14.40;8.40;;;;;;;7.20;97.35;98476.10;216711;1258;139744;-72
2024/02/12 17:00:45;;;;;;;10.40;7.70;;;;;;;7.18;97.69;98480.52;216836;1257;139804;-71
2024/02/12 17:05:50;;;;;;;18.20;8.70;;;;;;;7.15;97.85;98480.05;216806;1261;139717;-71
2024/02/12 17:10:55;;;;;;;13.00;8.30;;;;;;;7.09;97.99;98484.73;217569;1259;141006;-72
2024/02/12 17:16:00;;;;;;;12.90;8.70;;;;;;;7.08;98.06;98485.52;217424;1259;140439;-73
2024/02/12 17:21:09;;;;;;;14.30;7.50;;;;;;;7.08;98.18;98486.64;218563;1257;140667;-72
2024/02/12 17:26:15;;;;;;;13.20;7.00;;;;;;;7.12;98.26;98485.98;217005;1261;140179;-72
2024/02/12 17:31:20;;;;;;;13.40;7.40;;;;;;;7.14;98.45;98488.67;216812;1261;141398;-72
2024/02/12 17:36:28;;;;;;;13.00;7.80;;;;;;;7.16;98.08;98484.88;218173;1258;140512;-72
2024/02/12 17:41:32;;;;;;;11.70;7.40;;;;;;;7.14;98.34;98487.40;216601;1261;139790;-72
2024/02/12 17:46:37;;;;;;;10.30;7.70;;;;;;;7.12;98.06;98490.51;216459;1261;139740;-72
2024/02/12 17:51:44;;;;;;;14.00;7.70;;;;;;;7.12;98.14;98506.19;217088;1257;139681;-72
2024/02/12 17:56:49;;;;;;;12.90;8.40;;;;;;;7.09;98.07;98512.30;216628;1259;140019;-72
2024/02/12 18:01:56;;;;;;;11.70;6.90;;;;;;;7.08;97.95;98521.34;216989;1257;140470;-72
2024/02/12 18:07:01;;;;;;;28.00;8.20;;;;;;;7.07;97.97;98527.52;217028;1259;139599;-72
2024/02/12 18:12:05;;;;;;;11.10;5.90;;;;;;;7.06;98.04;98532.06;216858;1257;141580;-72
2024/02/12 18:17:11;;;;;;;8.90;5.80;;;;;;;7.02;97.79;98536.52;216619;1257;139742;-72
2024/02/12 18:22:16;;;;;;;11.30;5.90;;;;;;;7.00;98.33;98545.29;216958;1258;139595;-71
2024/02/12 18:27:23;;;;;;;9.60;5.10;;;;;;;6.97;98.11;98542.23;216639;1257;140290;-73
2024/02/12 18:32:28;;;;;;;11.40;7.10;;;;;;;6.91;97.88;98548.58;216520;1260;140042;-71
2024/02/12 18:37:37;;;;;;;11.80;6.70;;;;;;;6.84;97.66;98558.36;216671;1262;139671;-71
2024/02/12 18:42:46;;;;;;;16.10;8.50;;;;;;;6.77;97.68;98556.11;216560;1259;140161;-71
2024/02/12 18:47:56;;;;;;;17.00;7.60;;;;;;;6.72;97.81;98564.72;217367;1259;139823;-71
2024/02/12 18:53:03;;;;;;;10.10;7.30;;;;;;;6.67;97.87;98572.98;216654;1257;140076;-71
2024/02/12 18:58:10;;;;;;;12.70;8.00;;;;;;;6.63;97.93;98579.29;216582;1262;142299;-72
2024/02/12 19:03:15;;;;;;;;;;;;;;;6.59;97.70;98587.37;216743;1262;140551;-72
2024/02/12 19:08:21;;;;;;;13.20;10.60;;;;;;;6.57;98.49;98591.56;218544;1259;126036;-73
2024/02/12 19:13:26;;;;;;;16.60;9.30;;;;;;;6.57;98.40;98596.77;219830;1259;141176;-73
2024/02/12 19:18:30;;;;;;;15.70;8.80;;;;;;;6.54;98.05;98604.64;219100;1257;141800;-71
2024/02/12 19:23:36;;;;;;;13.60;7.80;;;;;;;6.50;98.06;98609.17;216516;1259;139998;-72
2024/02/12 19:28:42;;;;;;;15.00;9.00;;;;;;;6.44;97.82;98625.84;217996;1259;140044;-72
2024/02/12 19:33:47;;;;;;;14.00;9.10;;;;;;;6.37;97.79;98625.70;218099;1259;140569;-71
2024/02/12 19:38:52;;;;;;;9.20;7.30;;;;;;;6.30;97.73;98632.98;216804;1259;139550;-72
2024/02/12 19:43:58;;;;;;;13.20;8.30;;;;;;;6.26;97.92;98646.12;216772;1260;141397;-71
2024/02/12 19:49:02;;;;;;;16.80;9.30;;;;;;;6.24;98.27;98652.54;216669;1259;139971;-71
2024/02/12 19:54:06;;;;;;;11.20;8.40;;;;;;;6.23;98.18;98662.66;216580;1260;140027;-72
2024/02/12 19:59:11;;;;;;;14.20;9.30;;;;;;;6.18;98.04;98663.08;216435;1257;140121;-71
2024/02/12 20:04:17;;;;;;;17.70;9.90;;;;;;;6.15;98.05;98669.31;216571;1258;140649;-72
2024/02/12 20:09:23;;;;;;;16.40;9.20;;;;;;;6.16;97.98;98680.04;217630;1259;139964;-71
2024/02/12 20:14:27;;;;;;;14.90;9.90;;;;;;;6.16;98.29;98682.64;216691;1261;139517;-72
2024/02/12 20:19:32;;;;;;;14.60;10.40;;;;;;;6.11;98.00;98688.13;217400;1262;140854;-71
2024/02/12 20:24:36;;;;;;;13.30;7.80;;;;;;;6.02;98.06;98696.79;216594;1259;140136;-71
2024/02/12 20:29:41;;;;;;;14.40;8.80;;;;;;;5.99;98.14;98701.64;216679;1261;140176;-71
2024/02/12 20:34:45;;;;;;;15.50;10.40;;;;;;;5.97;97.73;98706.61;217485;1258;139870;-72
2024/02/12 20:39:53;;;;;;;12.40;9.00;;;;;;;5.92;97.74;98713.48;216601;1257;140733;-73
2024/02/12 20:44:57;;;;;;;13.40;8.70;;;;;;;5.90;97.42;98716.31;216659;1259;141609;-71
2024/02/12 20:50:06;;;;;;;19.40;12.40;;;;;;;5.85;97.36;98724.91;216755;1262;139702;-72
2024/02/12 20:55:13;;;;;;;14.00;7.70;;;;;;;5.82;97.41;98729.24;216758;1258;140281;-71
2024/02/12 21:00:21;;;;;;;13.70;7.80;;;;;;;5.77;97.41;98737.16;217263;1258;140946;-71
2024/02/12 21:05:25;;;;;;;17.00;8.50;;;;;;;5.71;97.15;98743.58;216631;1260;140843;-72
2024/02/12 21:10:30;;;;;;;8.40;6.10;;;;;;;5.66;97.52;98748.58;216577;1261;139861;-70
2024/02/12 21:15:35;;;;;;;10.50;6.30;;;;;;;5.67;97.46;98753.20;219557;1258;140651;-71
2024/02/12 21:20:40;;;;;;;8.10;4.40;;;;;;;5.71;97.73;98757.40;218205;1259;139717;-72
2024/02/12 21:25:45;;;;;;;10.00;5.20;;;;;;;5.78;97.31;98765.28;216841;1260;140533;-72
2024/02/12 21:30:49;;;;;;;10.10;6.40;;;;;;;5.80;96.97;98771.56;216543;1262;140547;-71
2024/02/12 21:35:55;;;;;;;10.70;6.90;;;;;;;5.79;96.90;98776.34;216487;1261;139645;-71
2024/02/12 21:41:25;;;;;;;8.10;5.60;;;;;;;5.81;96.63;98775.96;217411;1261;144542;-72
2024/02/12 21:46:28;;;;;;;8.20;5.30;;;;;;;5.86;96.97;98783.85;216885;1260;139821;-73
2024/02/12 21:51:34;;;;;;;10.00;6.00;;;;;;;5.88;96.75;98786.06;216837;1260;139777;-70
2024/02/12 21:56:39;;;;;;;9.10;6.40;;;;;;;5.90;97.20;98792.86;217045;1259;140168;-70
2024/02/12 22:01:43;;;;;;;7.50;5.30;;;;;;;5.92;96.81;98793.98;217031;1257;140294;-70
2024/02/12 22:06:47;;;;;;;9.90;6.30;;;;;;;5.94;96.71;98797.73;216971;1261;139246;-69
2024/02/12 22:11:51;;;;;;;8.40;5.50;;;;;;;5.96;96.59;98804.41;217334;1260;139876;-71
2024/02/12 22:16:55;;;;;;;12.90;7.60;;;;;;;5.97;96.88;98811.52;217011;1261;141463;-73
2024/02/12 22:21:59;;;;;;;13.60;9.20;;;;;;;5.96;96.56;98813.03;216801;1260;141125;-72
2024/02/12 22:27:03;;;;;;;18.30;10.10;;;;;;;5.97;96.67;98821.57;216888;1262;141099;-74
2024/02/12 22:32:09;;;;;;;8.60;7.10;;;;;;;5.97;96.97;98826.54;217101;1261;139795;-74
2024/02/12 22:37:13;;;;;;;17.60;9.90;;;;;;;5.97;96.85;98835.48;217090;1257;140025;-69
2024/02/12 22:42:17;;;;;;;18.40;7.50;;;;;;;5.98;96.92;98843.41;217796;1260;139513;-75
2024/02/12 22:47:22;;;;;;;13.80;8.30;;;;;;;6.00;96.72;98851.48;218480;1260;140176;-72
2024/02/12 22:52:26;;;;;;;12.30;7.50;;;;;;;6.00;96.64;98855.30;219879;1259;139913;-74
2024/02/12 22:57:30;;;;;;;11.00;6.30;;;;;;;6.00;96.44;98867.88;219440;1258;140392;-69
2024/02/12 23:02:35;;;;;;;21.70;9.20;;;;;;;6.02;96.30;98875.83;218678;1260;140033;-69
2024/02/12 23:07:40;;;;;;;7.10;5.40;;;;;;;6.05;96.56;98882.74;219157;1257;141165;-70
2024/02/12 23:12:45;;;;;;;9.70;6.90;;;;;;;6.08;95.96;98887.10;217555;1258;139922;-69
2024/02/12 23:17:52;;;;;;;7.80;6.10;;;;;;;6.08;96.13;98887.11;218350;1260;140200;-69
2024/02/12 23:22:57;;;;;;;8.60;5.80;;;;;;;6.07;95.72;98891.10;217256;1256;140592;-72
2024/02/12 23:28:02;;;;;;;6.70;4.60;;;;;;;6.05;95.91;98896.87;217057;1262;139605;-69
2024/02/12 23:33:07;;;;;;;6.10;4.90;;;;;;;6.01;95.85;98904.46;217129;1261;140762;-69
2024/02/12 23:38:13;;;;;;;6.70;3.20;;;;;;;6.00;95.99;98914.36;217082;1261;140631;-70
2024/02/12 23:43:18;;;;;;;6.10;4.60;;;;;;;5.99;95.74;98922.95;217512;1260;140747;-71
2024/02/12 23:48:23;;;;;;;8.80;4.30;;;;;;;6.01;95.82;98932.14;217204;1260;139682;-72